createdAt,value
2024-05-09T00:02:07.412Z,10.59
2024-05-09T00:04:33.911Z,10.61
2024-05-09T00:07:00.351Z,10.59
2024-05-09T00:09:26.763Z,10.59
2024-05-09T00:11:53.272Z,10.58
2024-05-09T00:14:19.726Z,10.57
2024-05-09T00:16:46.245Z,10.55
2024-05-09T00:19:12.978Z,10.58
2024-05-09T00:21:39.634Z,10.53
2024-05-09T00:24:05.995Z,10.52
2024-05-09T00:26:32.387Z,10.48
2024-05-09T00:28:58.840Z,10.53
2024-05-09T00:31:25.300Z,10.52
2024-05-09T00:33:51.892Z,10.51
2024-05-09T00:36:18.411Z,10.50
2024-05-09T00:38:44.788Z,10.48
2024-05-09T00:41:11.305Z,10.48
2024-05-09T00:43:37.706Z,10.45
2024-05-09T00:46:04.067Z,10.43
2024-05-09T00:48:30.661Z,10.45
2024-05-09T00:50:57.334Z,10.45
2024-05-09T00:53:23.785Z,10.45
2024-05-09T00:55:50.226Z,10.51
2024-05-09T00:58:16.622Z,10.59
2024-05-09T01:00:43.075Z,10.58
2024-05-09T01:03:12.557Z,10.61
2024-05-09T01:05:40.693Z,10.63
2024-05-09T01:08:07.526Z,10.62
2024-05-09T01:10:35.478Z,10.63
2024-05-09T01:13:03.824Z,10.63
2024-05-09T01:15:30.251Z,10.68
2024-05-09T01:17:57.047Z,10.63
2024-05-09T01:20:32.250Z,10.61
2024-05-09T01:23:06.865Z,10.62
2024-05-09T01:25:34.552Z,10.59
2024-05-09T01:28:01.323Z,10.53
2024-05-09T01:30:34.096Z,10.47
2024-05-09T01:33:03.196Z,10.39
2024-05-09T01:35:30.008Z,10.34
2024-05-09T01:37:56.422Z,10.29
2024-05-09T01:40:29.291Z,10.27
2024-05-09T01:43:04.131Z,10.23
2024-05-09T01:45:30.492Z,10.16
2024-05-09T01:47:58.296Z,10.11
2024-05-09T01:50:35.943Z,10.06
2024-05-09T01:53:05.825Z,9.98
2024-05-09T01:55:32.371Z,9.94
2024-05-09T01:57:58.727Z,9.91
2024-05-09T02:00:38.040Z,9.81
2024-05-09T02:03:09.701Z,9.79
2024-05-09T02:05:39.674Z,9.72
2024-05-09T02:08:07.210Z,9.71
2024-05-09T02:10:34.721Z,9.66
2024-05-09T02:13:01.720Z,9.62
2024-05-09T02:15:29.986Z,9.62
2024-05-09T02:17:59.516Z,9.56
2024-05-09T02:20:35.963Z,9.50
2024-05-09T02:23:07.779Z,9.45
2024-05-09T02:25:36.509Z,9.44
2024-05-09T02:28:05.519Z,9.39
2024-05-09T02:30:39.161Z,9.35
2024-05-09T02:33:14.549Z,9.34
2024-05-09T02:35:41.398Z,9.28
2024-05-09T02:38:07.887Z,9.25
2024-05-09T02:40:37.963Z,9.21
2024-05-09T02:43:10.038Z,9.08
2024-05-09T02:45:40.442Z,9.02
2024-05-09T02:48:09.086Z,8.96
2024-05-09T02:50:39.871Z,8.88
2024-05-09T02:53:06.752Z,8.71
2024-05-09T02:55:33.241Z,8.60
2024-05-09T02:58:14.824Z,8.51
2024-05-09T03:00:42.668Z,8.47
2024-05-09T03:03:19.926Z,8.46
2024-05-09T03:05:46.801Z,8.45
2024-05-09T03:08:13.526Z,8.40
2024-05-09T03:10:40.111Z,8.29
2024-05-09T03:13:06.551Z,8.32
2024-05-09T03:15:33.194Z,8.28
2024-05-09T03:17:59.967Z,8.23
2024-05-09T03:20:32.595Z,8.28
2024-05-09T03:23:01.215Z,8.20
2024-05-09T03:25:27.582Z,8.15
2024-05-09T03:27:53.903Z,8.14
2024-05-09T03:30:26.208Z,8.14
2024-05-09T03:33:01.970Z,8.16
2024-05-09T03:35:28.544Z,8.06
2024-05-09T03:37:54.972Z,8.07
2024-05-09T03:40:26.334Z,8.06
2024-05-09T03:42:55.298Z,8.05
2024-05-09T03:45:21.670Z,8.00
2024-05-09T03:47:48.321Z,7.94
2024-05-09T03:50:22.030Z,7.88
2024-05-09T03:52:53.374Z,7.80
2024-05-09T03:55:19.812Z,7.79
2024-05-09T03:58:02.454Z,7.74
2024-05-09T04:00:36.826Z,7.79
2024-05-09T04:03:06.682Z,7.78
2024-05-09T04:05:35.232Z,7.74
2024-05-09T04:08:01.903Z,7.73
2024-05-09T04:10:33.277Z,7.69
2024-05-09T04:13:01.284Z,7.67
2024-05-09T04:15:27.702Z,7.64
2024-05-09T04:17:54.186Z,7.63
2024-05-09T04:20:32.589Z,7.63
2024-05-09T04:23:04.474Z,7.61
2024-05-09T04:25:30.942Z,7.65
2024-05-09T04:27:57.308Z,7.61
2024-05-09T04:30:34.285Z,7.65
2024-05-09T04:33:08.481Z,7.65
2024-05-09T04:35:36.905Z,7.66
2024-05-09T04:38:03.343Z,7.73
2024-05-09T04:40:34.158Z,7.73
2024-05-09T04:43:02.736Z,7.81
2024-05-09T04:45:32.132Z,7.90
2024-05-09T04:47:58.858Z,7.98
2024-05-09T04:50:33.829Z,8.02
2024-05-09T04:53:04.147Z,8.11
2024-05-09T04:55:30.729Z,8.16
2024-05-09T04:57:57.151Z,8.21
2024-05-09T05:00:32.394Z,8.30
2024-05-09T05:03:03.183Z,8.38
2024-05-09T05:05:32.090Z,8.45
2024-05-09T05:07:59.892Z,8.45
2024-05-09T05:10:35.797Z,8.59
2024-05-09T05:13:06.370Z,8.67
2024-05-09T05:18:19.212Z,8.83
2024-05-09T05:20:55.696Z,8.96
2024-05-09T05:23:22.444Z,9.10
2024-05-09T05:25:49.005Z,9.24
2024-05-09T05:28:15.442Z,9.42
2024-05-09T05:30:41.847Z,9.63
2024-05-09T05:33:08.278Z,9.82
2024-05-09T05:35:35.036Z,10.08
2024-05-09T05:38:01.680Z,10.42
2024-05-09T05:40:35.442Z,10.79
2024-05-09T05:43:04.852Z,11.24
2024-05-09T05:45:31.283Z,11.65
2024-05-09T05:47:57.938Z,12.07
2024-05-09T05:50:46.119Z,12.45
2024-05-09T05:55:52.712Z,12.77
2024-05-09T05:56:04.861Z,13.13
2024-05-09T05:58:44.103Z,13.34
2024-05-09T06:01:19.733Z,13.46
2024-05-09T06:03:48.120Z,13.72
2024-05-09T06:06:15.917Z,13.94
2024-05-09T06:22:17.082Z,14.82
2024-05-09T06:24:50.761Z,14.93
2024-05-09T06:30:10.020Z,15.16
2024-05-09T06:35:43.056Z,15.41
2024-05-09T06:43:44.940Z,15.78
2024-05-09T06:48:58.473Z,16.06
2024-05-09T06:54:32.693Z,16.34
2024-05-09T06:55:36.200Z,16.16
2024-05-09T06:57:05.853Z,16.39
2024-05-09T07:02:16.977Z,16.67
2024-05-09T07:04:43.608Z,16.76
2024-05-09T07:07:10.299Z,16.85
2024-05-09T07:09:38.504Z,16.98
2024-05-09T07:12:04.959Z,16.89
2024-05-09T07:14:32.759Z,16.98
2024-05-09T07:17:00.243Z,16.88
2024-05-09T07:19:26.726Z,17.03
2024-05-09T07:21:54.276Z,17.29
2024-05-09T07:24:22.964Z,17.36
2024-05-09T07:29:43.716Z,17.67
2024-05-09T07:32:10.224Z,17.69
2024-05-09T07:34:36.735Z,17.77
2024-05-09T07:37:03.177Z,18.06
2024-05-09T07:39:30.458Z,18.25
2024-05-09T07:41:56.896Z,18.31
2024-05-09T07:44:23.344Z,18.48
2024-05-09T07:47:52.158Z,18.58
2024-05-09T07:53:32.385Z,18.48
2024-05-09T07:58:01.062Z,18.57
2024-05-09T08:00:33.561Z,18.85
2024-05-09T08:03:00.067Z,19.11
2024-05-09T08:05:26.576Z,19.39
2024-05-09T08:07:55.737Z,19.47
2024-05-09T08:10:28.980Z,19.27
2024-05-09T08:12:59.091Z,19.11
2024-05-09T08:15:29.809Z,19.14
2024-05-09T08:17:56.511Z,19.24
2024-05-09T08:20:30.773Z,19.48
2024-05-09T08:23:00.190Z,19.73
2024-05-09T08:25:27.322Z,19.90
2024-05-09T08:27:56.383Z,20.08
2024-05-09T08:30:37.091Z,20.04
2024-05-09T08:33:04.842Z,20.17
2024-05-09T08:35:32.621Z,20.13
2024-05-09T08:37:59.752Z,20.45
2024-05-09T08:40:33.506Z,20.57
2024-05-09T08:43:05.670Z,20.57
2024-05-09T08:45:35.143Z,20.61
2024-05-09T08:48:05.074Z,20.44
2024-05-09T08:50:39.475Z,20.66
2024-05-09T08:53:07.761Z,20.44
2024-05-09T08:55:42.038Z,20.30
2024-05-09T08:58:11.952Z,20.55
2024-05-09T09:00:38.551Z,20.89
2024-05-09T09:03:05.013Z,20.99
2024-05-09T09:05:34.492Z,21.34
2024-05-09T09:08:01.030Z,21.32
2024-05-09T09:10:32.038Z,21.01
2024-05-09T09:13:00.972Z,20.90
2024-05-09T09:15:27.448Z,20.99
2024-05-09T09:20:37.874Z,21.65
2024-05-09T09:23:04.619Z,21.37
2024-05-09T09:25:31.185Z,21.48
2024-05-09T09:27:58.931Z,21.39
2024-05-09T09:30:34.764Z,21.02
2024-05-09T09:33:04.229Z,20.43
2024-05-09T09:35:30.725Z,19.88
2024-05-09T09:37:57.072Z,19.53
2024-05-09T09:40:31.001Z,19.90
2024-05-09T09:42:59.065Z,20.43
2024-05-09T09:45:25.467Z,20.75
2024-05-09T09:47:51.914Z,20.68
2024-05-09T09:50:24.071Z,20.52
2024-05-09T09:52:57.937Z,20.31
2024-05-09T09:55:24.341Z,20.25
2024-05-09T09:57:50.723Z,20.57
2024-05-09T10:00:24.062Z,20.53
2024-05-09T10:02:54.065Z,20.68
2024-05-09T10:05:20.629Z,21.10
2024-05-09T10:07:47.079Z,21.47
2024-05-09T10:10:16.353Z,21.88
2024-05-09T10:12:46.347Z,22.14
2024-05-09T10:15:12.735Z,22.34
2024-05-09T10:17:39.243Z,22.31
2024-05-09T10:20:11.876Z,22.33
2024-05-09T10:22:47.653Z,22.34
2024-05-09T10:25:14.027Z,22.61
2024-05-09T10:27:40.478Z,22.83
2024-05-09T10:30:11.605Z,22.92
2024-05-09T10:32:41.214Z,22.89
2024-05-09T10:35:07.693Z,22.99
2024-05-09T10:37:34.166Z,22.66
2024-05-09T10:40:14.096Z,22.62
2024-05-09T10:42:46.243Z,22.75
2024-05-09T10:45:12.633Z,22.58
2024-05-09T10:47:39.127Z,22.52
2024-05-09T10:50:10.227Z,22.37
2024-05-09T10:52:41.650Z,22.63
2024-05-09T10:55:08.218Z,22.38
2024-05-09T10:57:37.383Z,22.60
2024-05-09T11:00:04.948Z,22.77
2024-05-09T11:02:34.248Z,22.74
2024-05-09T11:05:00.877Z,22.78
2024-05-09T11:07:27.490Z,22.95
2024-05-09T11:09:53.907Z,22.91
2024-05-09T11:12:22.848Z,22.78
2024-05-09T11:14:49.953Z,22.68
2024-05-09T11:17:16.394Z,22.56
2024-05-09T11:22:26.879Z,22.81
2024-05-09T11:24:53.307Z,22.90
2024-05-09T11:27:23.470Z,23.12
2024-05-09T11:29:52.241Z,23.29
2024-05-09T11:32:18.704Z,23.33
2024-05-09T11:34:45.121Z,23.33
2024-05-09T11:37:11.652Z,23.02
2024-05-09T11:39:38.144Z,22.75
2024-05-09T11:42:15.086Z,22.85
2024-05-09T11:44:46.285Z,22.95
2024-05-09T11:47:12.890Z,22.86
2024-05-09T11:49:39.431Z,22.85
2024-05-09T11:52:05.838Z,22.71
2024-05-09T11:54:32.264Z,22.41
2024-05-09T11:56:58.669Z,22.29
2024-05-09T11:59:25.127Z,22.56
2024-05-09T12:01:51.597Z,22.89
2024-05-09T12:04:18.373Z,23.19
2024-05-09T12:06:44.898Z,23.33
2024-05-09T12:09:11.246Z,23.33
2024-05-09T12:11:37.579Z,23.37
2024-05-09T12:14:03.920Z,23.47
2024-05-09T12:16:30.458Z,23.58
2024-05-09T12:18:56.917Z,23.56
2024-05-09T12:21:23.334Z,23.26
2024-05-09T12:23:49.705Z,23.42
2024-05-09T12:26:16.032Z,23.50
2024-05-09T12:28:42.337Z,23.78
2024-05-09T12:31:08.649Z,23.79
2024-05-09T12:33:35.079Z,23.90
2024-05-09T12:36:01.443Z,23.98
2024-05-09T12:38:27.763Z,23.85
2024-05-09T12:40:54.486Z,23.82
2024-05-09T12:43:20.950Z,23.89
2024-05-09T12:45:47.336Z,23.65
2024-05-09T12:48:13.871Z,23.68
2024-05-09T12:50:40.491Z,23.65
2024-05-09T12:53:06.963Z,23.71
2024-05-09T12:55:41.259Z,23.66
2024-05-09T12:58:14.817Z,23.66
2024-05-09T13:00:41.219Z,23.67
2024-05-09T13:03:07.705Z,23.72
2024-05-09T13:05:34.303Z,23.55
2024-05-09T13:08:00.817Z,23.59
2024-05-09T13:10:32.077Z,23.64
2024-05-09T13:13:00.168Z,23.92
2024-05-09T13:15:26.919Z,23.95
2024-05-09T13:17:53.262Z,24.18
2024-05-09T13:20:28.925Z,24.16
2024-05-09T13:22:59.242Z,23.81
2024-05-09T13:25:25.555Z,23.68
2024-05-09T13:27:58.270Z,23.87
2024-05-09T13:30:30.229Z,23.79
2024-05-09T13:33:05.278Z,23.73
2024-05-09T13:35:31.861Z,23.95
2024-05-09T13:37:58.190Z,24.11
2024-05-09T13:40:32.180Z,24.37
2024-05-09T13:43:01.148Z,24.63
2024-05-09T13:45:27.474Z,24.51
2024-05-09T13:47:53.875Z,24.67
2024-05-09T13:50:28.228Z,24.49
2024-05-09T13:53:00.228Z,24.39
2024-05-09T13:55:26.564Z,24.71
2024-05-09T13:57:52.943Z,24.75
2024-05-09T14:00:31.745Z,24.95
2024-05-09T14:03:05.675Z,24.47
2024-05-09T14:05:32.257Z,24.20
2024-05-09T14:07:58.699Z,24.30
2024-05-09T14:10:28.960Z,24.05
2024-05-09T14:12:57.720Z,24.25
2024-05-09T14:15:24.209Z,24.47
2024-05-09T14:17:50.605Z,24.81
2024-05-09T14:20:27.817Z,24.96
2024-05-09T14:22:57.620Z,24.96
2024-05-09T14:25:24.090Z,25.00
2024-05-09T14:27:50.546Z,25.22
2024-05-09T14:30:22.964Z,25.54
2024-05-09T14:32:57.038Z,25.69
2024-05-09T14:35:23.436Z,25.65
2024-05-09T14:37:49.778Z,25.70
2024-05-09T14:40:30.501Z,25.81
2024-05-09T14:43:03.167Z,25.86
2024-05-09T14:45:29.765Z,25.97
2024-05-09T14:47:56.260Z,26.16
2024-05-09T14:50:28.183Z,26.12
2024-05-09T14:53:01.336Z,26.11
2024-05-09T14:55:27.695Z,25.45
2024-05-09T14:57:54.253Z,24.73
2024-05-09T15:00:28.620Z,24.35
2024-05-09T15:02:59.255Z,24.49
2024-05-09T15:05:25.668Z,25.02
2024-05-09T15:07:52.064Z,25.26
2024-05-09T15:10:26.574Z,24.56
2024-05-09T15:12:59.869Z,23.61
2024-05-09T15:15:26.213Z,23.36
2024-05-09T15:17:52.617Z,23.72
2024-05-09T15:20:27.436Z,24.24
2024-05-09T15:23:00.027Z,24.64
2024-05-09T15:25:33.889Z,24.83
2024-05-09T15:28:00.406Z,24.99
2024-05-09T15:30:31.268Z,25.08
2024-05-09T15:32:59.963Z,25.22
2024-05-09T15:35:26.634Z,25.60
2024-05-09T15:37:52.991Z,25.83
2024-05-09T15:40:26.833Z,26.22
2024-05-09T15:43:04.776Z,26.31
2024-05-09T15:45:31.332Z,26.21
2024-05-09T15:47:57.931Z,26.21
2024-05-09T15:50:32.731Z,26.06
2024-05-09T15:53:04.607Z,26.05
2024-05-09T15:55:30.990Z,25.88
2024-05-09T15:57:57.587Z,25.60
2024-05-09T16:00:42.010Z,25.54
2024-05-09T16:06:00.071Z,25.58
2024-05-09T16:08:26.418Z,25.56
2024-05-09T16:10:52.910Z,25.43
2024-05-09T16:13:19.801Z,25.22
2024-05-09T16:15:46.585Z,25.14
2024-05-09T16:18:13.205Z,25.06
2024-05-09T16:20:41.771Z,24.82
2024-05-09T16:23:09.896Z,24.91
2024-05-09T16:25:36.511Z,24.75
2024-05-09T16:28:04.386Z,24.53
2024-05-09T16:30:35.414Z,24.35
2024-05-09T16:33:02.915Z,23.92
2024-05-09T16:35:29.672Z,23.83
2024-05-09T16:37:56.046Z,23.77
2024-05-09T16:40:30.218Z,23.66
2024-05-09T16:43:03.662Z,23.55
2024-05-09T16:45:30.299Z,23.16
2024-05-09T16:47:56.766Z,22.93
2024-05-09T16:50:29.286Z,22.73
2024-05-09T16:52:59.239Z,22.46
2024-05-09T16:55:25.683Z,22.35
2024-05-09T16:57:52.119Z,22.15
2024-05-09T17:00:31.445Z,22.00
2024-05-09T17:03:06.204Z,21.88
2024-05-09T17:05:33.197Z,21.66
2024-05-09T17:07:59.745Z,21.50
2024-05-09T17:10:32.188Z,21.36
2024-05-09T17:13:00.854Z,21.21
2024-05-09T17:15:27.328Z,21.14
2024-05-09T17:17:53.694Z,21.05
2024-05-09T17:20:29.323Z,20.98
2024-05-09T17:23:00.189Z,20.83
2024-05-09T17:25:26.904Z,20.77
2024-05-09T17:27:56.299Z,20.69
2024-05-09T17:30:29.154Z,20.64
2024-05-09T17:33:01.551Z,20.55
2024-05-09T17:35:28.132Z,20.45
2024-05-09T17:37:54.618Z,20.38
2024-05-09T17:40:27.849Z,20.28
2024-05-09T17:42:59.633Z,20.22
2024-05-09T17:45:26.020Z,20.11
2024-05-09T17:47:55.067Z,20.00
2024-05-09T17:50:27.650Z,19.93
2024-05-09T17:53:00.418Z,19.87
2024-05-09T17:55:26.919Z,19.86
2024-05-09T17:57:53.379Z,19.77
2024-05-09T18:00:28.844Z,19.74
2024-05-09T18:03:03.160Z,19.68
2024-05-09T18:05:29.696Z,19.59
2024-05-09T18:07:56.100Z,19.52
2024-05-09T18:10:29.521Z,19.32
2024-05-09T18:13:01.864Z,19.27
2024-05-09T18:15:28.274Z,19.20
2024-05-09T18:17:54.756Z,19.07
2024-05-09T18:20:32.095Z,18.99
2024-05-09T18:23:06.363Z,18.91
2024-05-09T18:25:32.667Z,18.83
2024-05-09T18:27:59.037Z,18.74
2024-05-09T18:30:32.224Z,18.63
2024-05-09T18:33:01.708Z,18.52
2024-05-09T18:35:28.136Z,18.37
2024-05-09T18:37:54.438Z,18.26
2024-05-09T18:40:28.205Z,18.11
2024-05-09T18:43:00.213Z,18.00
2024-05-09T18:45:26.527Z,17.85
2024-05-09T18:47:52.938Z,17.65
2024-05-09T18:50:28.599Z,17.52
2024-05-09T18:53:02.371Z,17.31
2024-05-09T18:55:28.710Z,17.18
2024-05-09T18:57:55.024Z,17.09
2024-05-09T19:00:31.348Z,16.93
2024-05-09T19:03:02.440Z,16.79
2024-05-09T19:05:29.054Z,16.61
2024-05-09T19:07:55.434Z,16.53
2024-05-09T19:10:25.564Z,16.43
2024-05-09T19:12:52.660Z,16.39
2024-05-09T19:15:18.986Z,16.30
2024-05-09T19:17:45.500Z,16.22
2024-05-09T19:20:20.764Z,16.09
2024-05-09T19:22:54.791Z,16.01
2024-05-09T19:25:21.247Z,15.88
2024-05-09T19:27:47.678Z,15.82
2024-05-09T19:30:21.525Z,15.77
2024-05-09T19:32:55.832Z,15.66
2024-05-09T19:35:22.303Z,15.60
2024-05-09T19:37:48.655Z,15.50
2024-05-09T19:40:24.471Z,15.43
2024-05-09T19:42:55.588Z,15.37
2024-05-09T19:45:21.937Z,15.29
2024-05-09T19:47:48.398Z,15.21
2024-05-09T19:50:19.937Z,15.11
2024-05-09T19:52:53.076Z,15.02
2024-05-09T19:55:19.438Z,14.97
2024-05-09T19:57:45.788Z,14.86
2024-05-09T20:00:17.674Z,14.79
2024-05-09T20:02:48.366Z,14.70
2024-05-09T20:05:14.861Z,14.61
2024-05-09T20:07:41.449Z,14.54
2024-05-09T20:10:16.614Z,14.52
2024-05-09T20:12:49.783Z,14.45
2024-05-09T20:15:16.140Z,14.40
2024-05-09T20:17:42.494Z,14.31
2024-05-09T20:20:13.817Z,14.23
2024-05-09T20:22:46.664Z,14.18
2024-05-09T20:25:13.191Z,14.10
2024-05-09T20:27:39.590Z,14.06
2024-05-09T20:30:09.789Z,13.97
2024-05-09T20:32:38.646Z,13.96
2024-05-09T20:35:05.164Z,13.91
2024-05-09T20:37:31.548Z,13.81
2024-05-09T20:39:57.912Z,13.78
2024-05-09T20:42:24.280Z,13.68
2024-05-09T20:44:50.703Z,13.65
2024-05-09T20:47:17.041Z,13.59
2024-05-09T20:49:43.472Z,13.53
2024-05-09T20:52:10.004Z,13.48
2024-05-09T20:54:36.432Z,13.49
2024-05-09T20:57:02.780Z,13.45
2024-05-09T20:59:29.090Z,13.39
2024-05-09T21:01:55.520Z,13.40
2024-05-09T21:04:22.204Z,13.37
2024-05-09T21:06:48.645Z,13.35
2024-05-09T21:09:14.996Z,13.34
2024-05-09T21:11:41.368Z,13.33
2024-05-09T21:14:07.692Z,13.32
2024-05-09T21:16:34.232Z,13.24
2024-05-09T21:19:00.663Z,13.18
2024-05-09T21:21:27.051Z,13.15
2024-05-09T21:23:53.403Z,13.11
2024-05-09T21:26:19.742Z,13.04
2024-05-09T21:28:46.047Z,13.04
2024-05-09T21:31:12.390Z,13.02
2024-05-09T21:33:39.214Z,12.98
2024-05-09T21:36:05.626Z,12.96
2024-05-09T21:38:31.920Z,12.92
2024-05-09T21:40:58.479Z,12.91
2024-05-09T21:43:25.165Z,12.86
2024-05-09T21:45:51.534Z,12.82
2024-05-09T21:48:17.892Z,12.79
2024-05-09T21:50:44.219Z,12.78
2024-05-09T21:53:10.706Z,12.75
2024-05-09T21:55:38.509Z,12.72
2024-05-09T21:58:05.108Z,12.64
2024-05-09T22:00:36.933Z,12.60
2024-05-09T22:03:05.192Z,12.54
2024-05-09T22:05:31.812Z,12.52
2024-05-09T22:07:58.285Z,12.50
2024-05-09T22:10:31.011Z,12.46
2024-05-09T22:13:00.958Z,12.41
2024-05-09T22:15:27.483Z,12.37
2024-05-09T22:17:54.010Z,12.36
2024-05-09T22:20:28.738Z,12.30
2024-05-09T22:23:01.965Z,12.30
2024-05-09T22:25:30.410Z,12.27
2024-05-09T22:27:57.423Z,12.25
2024-05-09T22:30:31.127Z,12.24
2024-05-09T22:33:01.480Z,12.16
2024-05-09T22:35:27.830Z,12.13
2024-05-09T22:37:54.120Z,12.04
2024-05-09T22:40:29.146Z,11.99
2024-05-09T22:43:04.641Z,11.95
2024-05-09T22:45:30.939Z,11.91
2024-05-09T22:47:57.549Z,11.92
2024-05-09T22:50:26.997Z,11.84
2024-05-09T22:52:57.326Z,11.78
2024-05-09T22:55:23.654Z,11.71
2024-05-09T22:57:49.989Z,11.73
2024-05-09T23:00:18.793Z,11.65
2024-05-09T23:02:45.470Z,11.68
2024-05-09T23:05:11.924Z,11.60
2024-05-09T23:07:38.294Z,11.61
2024-05-09T23:10:12.992Z,11.60
2024-05-09T23:12:43.405Z,11.55
2024-05-09T23:15:09.759Z,11.54
2024-05-09T23:17:36.094Z,11.45
2024-05-09T23:20:03.970Z,11.39
2024-05-09T23:22:31.787Z,11.31
2024-05-09T23:24:58.248Z,11.31
2024-05-09T23:27:24.567Z,11.28
2024-05-09T23:29:50.897Z,11.20
2024-05-09T23:32:17.262Z,11.20
2024-05-09T23:34:43.656Z,11.19
2024-05-09T23:37:10.110Z,11.16
2024-05-09T23:39:36.555Z,11.14
2024-05-09T23:42:02.896Z,11.08
2024-05-09T23:44:29.227Z,11.08
2024-05-09T23:46:55.726Z,11.07
2024-05-09T23:49:22.270Z,11.08
2024-05-09T23:51:48.643Z,11.07
2024-05-09T23:54:14.954Z,11.01
2024-05-09T23:56:41.292Z,10.97
2024-05-09T23:59:07.600Z,10.93
